createdAt,value
2023-04-14T00:00:42.403Z,1.83
2023-04-14T00:01:45.404Z,2.30
2023-04-14T00:02:48.012Z,2.13
2023-04-14T00:03:50.660Z,1.80
2023-04-14T00:04:54.350Z,3.92
2023-04-14T00:05:56.998Z,4.43
2023-04-14T00:07:00.187Z,2.42
2023-04-14T00:08:02.858Z,3.65
2023-04-14T00:09:05.528Z,3.10
2023-04-14T00:10:11.512Z,3.10
2023-04-14T00:11:14.175Z,2.10
2023-04-14T00:12:16.530Z,2.08
2023-04-14T00:13:18.896Z,27.75
2023-04-14T00:14:21.281Z,115.75
2023-04-14T00:15:23.767Z,79.80
2023-04-14T00:16:26.180Z,45.60
2023-04-14T00:17:28.677Z,23.65
2023-04-14T00:18:31.173Z,20.23
2023-04-14T00:19:35.987Z,12.80
2023-04-14T00:20:38.547Z,14.20
2023-04-14T00:21:43.098Z,8.93
2023-04-14T00:22:45.611Z,8.40
2023-04-14T00:23:48.173Z,6.47
2023-04-14T00:24:50.787Z,5.72
2023-04-14T00:25:53.189Z,8.27
2023-04-14T00:26:56.899Z,8.07
2023-04-14T00:27:59.442Z,7.70
2023-04-14T00:29:02.129Z,4.53
2023-04-14T00:30:05.453Z,6.25
2023-04-14T00:31:11.240Z,5.40
2023-04-14T00:32:13.685Z,7.38
2023-04-14T00:33:16.092Z,4.32
2023-04-14T00:34:18.521Z,5.60
2023-04-14T00:35:21.417Z,4.47
2023-04-14T00:36:23.785Z,9.00
2023-04-14T00:37:27.211Z,4.78
2023-04-14T00:38:29.635Z,6.07
2023-04-14T00:39:32.276Z,5.25
2023-04-14T00:40:35.402Z,4.78
2023-04-14T00:41:37.898Z,3.92
2023-04-14T00:42:47.404Z,4.30
2023-04-14T00:43:54.050Z,6.20
2023-04-14T00:44:56.453Z,3.85
2023-04-14T00:45:58.976Z,3.28
2023-04-14T00:47:02.288Z,3.33
2023-04-14T00:48:04.695Z,4.47
2023-04-14T00:49:07.469Z,8.18
2023-04-14T00:50:10.811Z,7.45
2023-04-14T00:51:13.690Z,145.30
2023-04-14T00:52:19.336Z,168.02
2023-04-14T00:53:22.082Z,116.43
2023-04-14T00:54:26.640Z,60.47
2023-04-14T00:55:29.770Z,51.72
2023-04-14T00:56:32.223Z,38.15
2023-04-14T00:57:35.394Z,30.75
2023-04-14T00:58:39.029Z,25.55
2023-04-14T00:59:41.452Z,19.80
2023-04-14T01:00:44.246Z,14.18
2023-04-14T01:01:47.410Z,20.30
2023-04-14T01:02:50.468Z,13.52
2023-04-14T01:03:55.915Z,12.20
2023-04-14T01:04:58.890Z,11.13
2023-04-14T01:06:01.584Z,12.18
2023-04-14T01:07:04.183Z,9.23
2023-04-14T01:08:06.789Z,6.32
2023-04-14T01:09:10.189Z,8.57
2023-04-14T01:10:12.739Z,11.23
2023-04-14T01:11:36.335Z,8.70
2023-04-14T01:12:56.118Z,7.63
2023-04-14T01:14:36.448Z,7.90
2023-04-14T01:15:41.366Z,8.20
2023-04-14T01:16:45.654Z,5.70
2023-04-14T01:18:21.854Z,5.15
2023-04-14T01:19:43.157Z,4.65
2023-04-14T01:20:50.334Z,4.68
2023-04-14T01:22:03.376Z,6.07
2023-04-14T01:23:12.763Z,6.60
2023-04-14T01:24:29.454Z,5.63
2023-04-14T01:25:53.539Z,4.78
2023-04-14T01:27:27.506Z,3.83
2023-04-14T01:29:00.099Z,7.18
2023-04-14T01:30:52.364Z,5.03
2023-04-14T01:32:10.261Z,4.78
2023-04-14T01:33:18.382Z,3.08
2023-04-14T01:34:29.394Z,4.30
2023-04-14T01:35:44.331Z,4.07
2023-04-14T01:37:04.157Z,3.58
2023-04-14T01:38:17.834Z,3.05
2023-04-14T01:39:24.882Z,3.63
2023-04-14T01:40:29.410Z,2.13
2023-04-14T01:41:34.244Z,3.97
2023-04-14T01:42:42.996Z,4.50
2023-04-14T01:43:48.806Z,4.22
2023-04-14T01:44:56.706Z,2.40
2023-04-14T01:46:04.990Z,4.35
2023-04-14T01:47:12.634Z,3.28
2023-04-14T01:48:16.766Z,2.92
2023-04-14T01:49:22.175Z,4.60
2023-04-14T01:50:26.369Z,3.22
2023-04-14T01:51:32.345Z,3.15
2023-04-14T01:52:37.477Z,6.53
2023-04-14T01:53:42.876Z,2.50
2023-04-14T01:54:51.059Z,5.55
2023-04-14T01:55:56.072Z,1.67
2023-04-14T01:57:01.798Z,2.28
2023-04-14T01:58:06.939Z,3.00
2023-04-14T01:59:11.938Z,5.78
2023-04-14T02:00:17.252Z,3.30
2023-04-14T02:01:20.149Z,3.22
2023-04-14T02:02:24.552Z,6.00
2023-04-14T02:03:27.890Z,3.58
2023-04-14T02:04:32.778Z,3.97
2023-04-14T02:05:38.713Z,4.45
2023-04-14T02:06:42.461Z,5.22
2023-04-14T02:07:46.902Z,6.20
2023-04-14T02:08:50.981Z,3.97
2023-04-14T02:09:55.328Z,4.10
2023-04-14T02:10:59.026Z,3.75
2023-04-14T02:12:08.017Z,2.55
2023-04-14T02:13:12.067Z,8.05
2023-04-14T02:14:16.510Z,2.25
2023-04-14T02:15:22.342Z,3.90
2023-04-14T02:16:26.243Z,3.05
2023-04-14T02:17:30.028Z,3.78
2023-04-14T02:18:33.357Z,4.72
2023-04-14T02:19:37.060Z,3.05
2023-04-14T02:20:44.804Z,2.08
2023-04-14T02:21:49.505Z,4.88
2023-04-14T02:22:51.968Z,4.32
2023-04-14T02:23:54.325Z,3.30
2023-04-14T02:24:56.702Z,5.72
2023-04-14T02:26:07.791Z,1.88
2023-04-14T02:27:18.830Z,4.47
2023-04-14T02:28:27.956Z,1.42
2023-04-14T02:29:32.563Z,5.38
2023-04-14T02:30:44.140Z,3.72
2023-04-14T02:31:56.710Z,1.58
2023-04-14T02:33:05.940Z,2.40
2023-04-14T02:34:11.298Z,2.67
2023-04-14T02:35:39.766Z,2.55
2023-04-14T02:37:09.480Z,3.22
2023-04-14T02:38:20.872Z,2.63
2023-04-14T02:50:29.288Z,57.15
2023-04-14T02:51:41.452Z,130.75
2023-04-14T02:52:51.354Z,479.38
2023-04-14T02:53:56.760Z,361.65
2023-04-14T02:55:12.541Z,251.95
2023-04-14T02:56:15.739Z,194.45
2023-04-14T02:57:21.829Z,170.95
2023-04-14T02:58:27.332Z,146.02
2023-04-14T02:59:32.252Z,132.30
2023-04-14T03:00:40.341Z,108.63
2023-04-14T03:01:45.486Z,104.68
2023-04-14T03:02:49.406Z,89.63
2023-04-14T03:03:56.086Z,88.05
2023-04-14T03:05:00.699Z,86.25
2023-04-14T03:06:19.539Z,79.68
2023-04-14T03:07:23.321Z,63.13
2023-04-14T03:08:27.932Z,65.63
2023-04-14T03:09:31.955Z,62.45
2023-04-14T03:10:35.399Z,62.63
2023-04-14T03:11:39.794Z,62.45
2023-04-14T03:12:45.058Z,61.42
2023-04-14T03:13:53.243Z,54.40
2023-04-14T03:14:56.549Z,59.70
2023-04-14T03:15:59.615Z,59.03
2023-04-14T03:17:04.362Z,59.60
2023-04-14T03:18:07.616Z,55.15
2023-04-14T03:19:12.542Z,54.53
2023-04-14T03:20:21.749Z,53.83
2023-04-14T03:21:25.273Z,52.53
2023-04-14T03:22:28.868Z,51.20
2023-04-14T03:23:34.251Z,54.67
2023-04-14T03:24:42.479Z,49.05
2023-04-14T03:25:46.599Z,50.45
2023-04-14T03:27:03.022Z,50.60
2023-04-14T03:28:10.669Z,51.88
2023-04-14T03:29:19.944Z,50.75
2023-04-14T03:30:26.157Z,47.40
2023-04-14T03:31:34.018Z,51.55
2023-04-14T03:32:42.917Z,47.05
2023-04-14T03:33:55.693Z,44.75
2023-04-14T03:36:04.663Z,46.42
2023-04-14T03:37:09.182Z,45.72
2023-04-14T03:38:16.233Z,43.10
2023-04-14T03:39:24.833Z,41.17
2023-04-14T03:40:31.731Z,41.70
2023-04-14T03:41:40.153Z,48.63
2023-04-14T03:42:46.164Z,318.60
2023-04-14T03:43:56.847Z,166.68
2023-04-14T03:45:00.721Z,93.07
2023-04-14T03:46:05.696Z,89.57
2023-04-14T03:47:10.568Z,69.13
2023-04-14T03:48:18.483Z,59.55
2023-04-14T03:49:25.595Z,55.20
2023-04-14T03:50:32.100Z,54.17
2023-04-14T03:51:36.564Z,46.20
2023-04-14T03:52:45.566Z,49.90
2023-04-14T03:53:52.716Z,59.22
2023-04-14T03:54:59.553Z,59.97
2023-04-14T03:56:04.625Z,57.95
2023-04-14T03:57:10.671Z,62.00
2023-04-14T03:58:15.859Z,60.03
2023-04-14T03:59:20.081Z,387.88
2023-04-14T04:00:23.904Z,184.65
2023-04-14T04:01:27.898Z,154.57
2023-04-14T04:02:33.053Z,150.00
2023-04-14T04:03:39.117Z,124.25
2023-04-14T04:04:43.422Z,97.75
2023-04-14T04:05:46.208Z,81.38
2023-04-14T04:06:50.097Z,83.13
2023-04-14T04:07:53.658Z,84.32
2023-04-14T04:08:57.746Z,75.80
2023-04-14T04:10:00.708Z,78.60
2023-04-14T04:11:07.378Z,76.78
2023-04-14T04:12:10.893Z,81.13
2023-04-14T04:13:17.646Z,76.13
2023-04-14T04:14:25.639Z,74.97
2023-04-14T04:15:32.994Z,73.97
2023-04-14T04:16:38.645Z,71.38
2023-04-14T04:17:44.600Z,70.07
2023-04-14T04:18:49.056Z,74.50
2023-04-14T04:19:57.167Z,68.63
2023-04-14T04:21:02.388Z,64.43
2023-04-14T04:22:07.667Z,66.13
2023-04-14T04:23:12.373Z,68.57
2023-04-14T04:24:18.773Z,69.13
2023-04-14T04:25:21.436Z,63.92
2023-04-14T04:26:36.557Z,61.53
2023-04-14T04:27:39.161Z,60.75
2023-04-14T04:28:49.199Z,57.28
2023-04-14T04:29:52.350Z,63.50
2023-04-14T04:30:59.141Z,63.90
2023-04-14T04:32:01.989Z,58.67
2023-04-14T04:33:06.347Z,57.00
2023-04-14T04:34:09.809Z,56.90
2023-04-14T04:35:15.383Z,59.42
2023-04-14T04:36:21.640Z,56.80
2023-04-14T04:37:28.643Z,55.58
2023-04-14T04:38:32.102Z,54.05
2023-04-14T04:39:34.820Z,55.55
2023-04-14T04:40:41.262Z,53.10
2023-04-14T04:42:06.612Z,56.85
2023-04-14T04:43:09.345Z,61.65
2023-04-14T04:44:11.886Z,54.10
2023-04-14T04:45:36.440Z,53.63
2023-04-14T04:46:54.791Z,59.90
2023-04-14T04:48:04.371Z,51.45
2023-04-14T04:49:10.310Z,47.35
2023-04-14T04:50:13.634Z,55.35
2023-04-14T04:51:17.955Z,91.32
2023-04-14T04:52:20.418Z,53.13
2023-04-14T04:53:22.955Z,67.45
2023-04-14T04:54:27.314Z,94.07
2023-04-14T04:55:29.816Z,94.55
2023-04-14T04:56:33.587Z,68.40
2023-04-14T04:57:36.316Z,62.80
2023-04-14T04:58:38.778Z,55.45
2023-04-14T04:59:41.580Z,58.20
2023-04-14T05:00:44.094Z,57.42
2023-04-14T05:01:46.769Z,58.60
2023-04-14T05:02:53.498Z,58.65
2023-04-14T05:03:56.315Z,52.53
2023-04-14T05:05:00.380Z,59.97
2023-04-14T05:06:04.756Z,53.53
2023-04-14T05:07:09.027Z,56.35
2023-04-14T05:08:14.435Z,59.13
2023-04-14T05:09:19.159Z,59.03
2023-04-14T05:10:25.563Z,57.67
2023-04-14T05:11:28.711Z,57.47
2023-04-14T05:12:31.427Z,55.92
2023-04-14T05:13:34.199Z,56.28
2023-04-14T05:14:36.929Z,53.28
2023-04-14T05:15:39.996Z,54.42
2023-04-14T05:16:42.551Z,55.47
2023-04-14T05:17:45.120Z,58.28
2023-04-14T05:18:47.730Z,52.80
2023-04-14T05:19:50.710Z,50.47
2023-04-14T05:20:54.236Z,56.50
2023-04-14T05:21:58.539Z,52.67
2023-04-14T05:23:01.486Z,53.38
2023-04-14T05:24:04.693Z,54.20
2023-04-14T05:25:07.957Z,56.00
2023-04-14T05:27:19.045Z,51.58
2023-04-14T05:28:21.389Z,52.85
2023-04-14T05:29:23.911Z,51.08
2023-04-14T05:30:26.573Z,52.03
2023-04-14T05:31:29.124Z,50.17
2023-04-14T05:32:32.137Z,51.53
2023-04-14T05:33:35.396Z,54.58
2023-04-14T05:34:37.995Z,49.70
2023-04-14T05:35:40.573Z,47.85
2023-04-14T05:36:43.184Z,51.65
2023-04-14T05:37:45.995Z,46.92
2023-04-14T05:38:48.472Z,56.45
2023-04-14T05:39:51.069Z,46.67
2023-04-14T05:40:53.737Z,47.45
2023-04-14T05:41:56.816Z,50.70
2023-04-14T05:42:59.746Z,47.08
2023-04-14T05:44:04.058Z,50.20
2023-04-14T05:45:07.507Z,50.05
2023-04-14T05:46:13.560Z,49.28
2023-04-14T05:47:16.827Z,50.15
2023-04-14T05:48:19.224Z,48.60
2023-04-14T05:49:22.020Z,46.88
2023-04-14T05:50:24.422Z,29.80
2023-04-14T05:51:27.847Z,30.17
2023-04-14T05:52:30.410Z,51.17
2023-04-14T05:53:32.807Z,39.03
2023-04-14T05:54:35.336Z,38.20
2023-04-14T05:55:39.910Z,45.25
2023-04-14T05:56:42.776Z,36.33
2023-04-14T05:57:46.964Z,39.35
2023-04-14T05:58:54.136Z,36.13
2023-04-14T05:59:58.187Z,39.75
2023-04-14T06:01:01.003Z,42.33
2023-04-14T06:02:07.415Z,41.50
2023-04-14T06:03:10.424Z,41.58
2023-04-14T06:04:15.316Z,38.80
2023-04-14T06:05:18.596Z,40.42
2023-04-14T06:06:21.192Z,40.78
2023-04-14T06:07:24.205Z,39.33
2023-04-14T06:08:26.690Z,43.97
2023-04-14T06:09:29.047Z,42.80
2023-04-14T06:10:32.180Z,43.03
2023-04-14T06:11:34.687Z,38.22
2023-04-14T06:12:39.893Z,45.28
2023-04-14T06:13:42.234Z,42.80
2023-04-14T06:14:44.573Z,43.03
2023-04-14T06:15:50.178Z,38.17
2023-04-14T06:16:58.560Z,41.53
2023-04-14T06:18:01.318Z,44.78
2023-04-14T06:19:04.762Z,41.78
2023-04-14T06:20:08.989Z,39.97
2023-04-14T06:21:12.203Z,46.03
2023-04-14T06:22:19.875Z,40.65
2023-04-14T06:23:24.725Z,38.60
2023-04-14T06:24:27.220Z,37.25
2023-04-14T06:25:34.613Z,41.17
2023-04-14T06:26:37.660Z,37.65
2023-04-14T06:27:40.413Z,40.35
2023-04-14T06:28:43.926Z,44.42
2023-04-14T06:29:46.757Z,40.38
2023-04-14T06:30:49.284Z,37.97
2023-04-14T06:31:51.963Z,49.78
2023-04-14T06:32:55.110Z,42.17
2023-04-14T06:33:57.558Z,58.88
2023-04-14T06:34:59.919Z,57.20
2023-04-14T06:36:02.929Z,50.35
2023-04-14T06:37:05.658Z,47.00
2023-04-14T06:38:10.320Z,28.33
2023-04-14T06:39:13.456Z,36.90
2023-04-14T06:40:15.929Z,26.73
2023-04-14T06:41:18.833Z,26.23
2023-04-14T06:42:21.749Z,20.00
2023-04-14T06:43:24.172Z,28.40
2023-04-14T06:44:26.673Z,37.97
2023-04-14T06:45:29.807Z,33.42
2023-04-14T06:46:36.559Z,36.10
2023-04-14T06:47:39.550Z,32.65
2023-04-14T06:48:41.966Z,34.92
2023-04-14T06:49:44.610Z,37.22
2023-04-14T06:50:54.736Z,35.25
2023-04-14T06:51:57.112Z,41.03
2023-04-14T06:52:59.460Z,99.95
2023-04-14T06:54:02.109Z,39.90
2023-04-14T06:55:05.060Z,51.85
2023-04-14T06:56:08.204Z,26.35
2023-04-14T06:57:10.564Z,29.70
2023-04-14T06:58:13.048Z,23.75
2023-04-14T06:59:15.359Z,29.33
2023-04-14T07:00:18.006Z,30.30
2023-04-14T07:01:20.459Z,29.83
2023-04-14T07:02:23.893Z,26.65
2023-04-14T07:03:28.343Z,30.42
2023-04-14T07:04:30.781Z,34.45
2023-04-14T07:05:33.199Z,32.38
2023-04-14T07:06:36.045Z,30.48
2023-04-14T07:07:40.299Z,30.80
2023-04-14T07:08:43.593Z,38.65
2023-04-14T07:09:46.014Z,36.63
2023-04-14T07:10:48.479Z,32.20
2023-04-14T07:11:53.037Z,37.50
2023-04-14T07:12:56.524Z,32.17
2023-04-14T07:13:59.083Z,29.63
2023-04-14T07:15:01.841Z,30.58
2023-04-14T07:16:06.576Z,31.60
2023-04-14T07:17:18.919Z,36.33
2023-04-14T07:18:22.381Z,27.67
2023-04-14T07:19:24.845Z,27.35
2023-04-14T07:20:27.458Z,28.83
2023-04-14T07:21:29.871Z,32.67
2023-04-14T07:22:33.305Z,31.85
2023-04-14T07:23:35.785Z,26.48
2023-04-14T07:24:38.693Z,29.83
2023-04-14T07:25:41.079Z,32.60
2023-04-14T07:26:44.506Z,27.90
2023-04-14T07:28:00.363Z,29.80
2023-04-14T07:29:08.237Z,29.20
2023-04-14T07:30:11.567Z,27.85
2023-04-14T07:31:15.033Z,30.33
2023-04-14T07:32:17.485Z,34.53
2023-04-14T07:33:22.169Z,33.53
2023-04-14T07:34:24.721Z,26.40
2023-04-14T07:35:27.277Z,46.78
2023-04-14T07:36:32.755Z,30.42
2023-04-14T07:37:35.206Z,25.38
2023-04-14T07:38:37.632Z,47.15
2023-04-14T07:39:40.687Z,40.20
2023-04-14T07:40:43.134Z,31.13
2023-04-14T07:41:45.721Z,43.20
2023-04-14T07:42:48.163Z,31.40
2023-04-14T07:43:50.812Z,34.78
2023-04-14T07:44:53.750Z,31.73
2023-04-14T07:45:56.401Z,29.45
2023-04-14T07:46:59.102Z,35.65
2023-04-14T07:48:01.866Z,32.53
2023-04-14T07:49:04.805Z,26.30
2023-04-14T07:50:12.665Z,34.85
2023-04-14T07:51:15.497Z,31.58
2023-04-14T07:52:18.340Z,28.27
2023-04-14T07:53:21.417Z,29.63
2023-04-14T07:54:24.499Z,43.40
2023-04-14T07:55:27.593Z,28.10
2023-04-14T07:56:30.688Z,28.13
2023-04-14T07:57:36.122Z,30.45
2023-04-14T07:58:40.240Z,26.23
2023-04-14T07:59:43.094Z,26.63
2023-04-14T08:00:46.011Z,27.35
2023-04-14T08:01:48.686Z,26.00
2023-04-14T08:02:51.476Z,26.85
2023-04-14T08:03:54.433Z,27.58
2023-04-14T08:04:57.633Z,26.25
2023-04-14T08:06:00.513Z,32.63
2023-04-14T08:07:02.995Z,29.35
2023-04-14T08:08:05.898Z,25.60
2023-04-14T08:09:08.425Z,28.33
2023-04-14T08:10:11.095Z,25.58
2023-04-14T08:11:13.964Z,30.35
2023-04-14T08:12:16.700Z,30.05
2023-04-14T08:13:22.182Z,26.60
2023-04-14T08:14:25.739Z,23.85
2023-04-14T08:15:28.288Z,27.15
2023-04-14T08:16:31.101Z,29.65
2023-04-14T08:17:36.332Z,28.80
2023-04-14T08:18:41.288Z,25.55
2023-04-14T08:19:43.826Z,25.15
2023-04-14T08:20:46.399Z,19.60
2023-04-14T08:21:48.875Z,14.48
2023-04-14T08:22:53.426Z,12.45
2023-04-14T08:23:56.059Z,10.88
2023-04-14T08:24:58.653Z,24.08
2023-04-14T08:26:01.488Z,17.30
2023-04-14T08:27:06.448Z,12.60
2023-04-14T08:28:11.432Z,10.38
2023-04-14T08:29:14.221Z,12.52
2023-04-14T08:30:16.795Z,11.45
2023-04-14T08:31:20.305Z,15.00
2023-04-14T08:32:30.970Z,22.65
2023-04-14T08:33:34.051Z,28.13
2023-04-14T08:34:38.012Z,32.53
2023-04-14T08:35:44.539Z,97.82
2023-04-14T08:36:51.849Z,125.25
2023-04-14T08:37:56.810Z,79.88
2023-04-14T08:39:02.058Z,72.82
2023-04-14T08:40:09.098Z,80.20
2023-04-14T08:41:14.673Z,90.07
2023-04-14T08:42:17.387Z,71.53
2023-04-14T08:43:20.666Z,57.30
2023-04-14T08:44:23.202Z,67.93
2023-04-14T08:45:26.095Z,47.33
2023-04-14T08:46:29.346Z,65.68
2023-04-14T08:47:35.334Z,47.65
2023-04-14T08:48:39.080Z,48.60
2023-04-14T08:49:46.214Z,44.95
2023-04-14T08:51:05.297Z,46.05
2023-04-14T08:52:13.732Z,69.63
2023-04-14T08:53:18.371Z,39.72
2023-04-14T08:54:21.546Z,34.53
2023-04-14T08:55:25.316Z,31.02
2023-04-14T08:56:33.409Z,37.22
2023-04-14T08:57:36.645Z,42.58
2023-04-14T08:58:39.506Z,33.10
2023-04-14T08:59:42.344Z,30.10
2023-04-14T09:00:45.853Z,38.05
2023-04-14T09:01:50.118Z,30.02
2023-04-14T09:02:54.397Z,18.40
2023-04-14T09:03:57.991Z,23.42
2023-04-14T09:05:01.313Z,19.08
2023-04-14T09:06:05.281Z,19.35
2023-04-14T09:07:07.760Z,24.83
2023-04-14T09:08:11.210Z,15.70
2023-04-14T09:09:13.873Z,15.63
2023-04-14T09:10:17.115Z,22.60
2023-04-14T09:11:19.861Z,24.88
2023-04-14T09:12:24.131Z,18.75
2023-04-14T09:13:28.374Z,15.93
2023-04-14T09:14:30.961Z,6.55
2023-04-14T09:15:33.627Z,19.40
2023-04-14T09:16:37.678Z,10.85
2023-04-14T09:17:40.473Z,12.90
2023-04-14T09:18:43.812Z,14.35
2023-04-14T09:20:36.046Z,17.35
2023-04-14T09:21:32.985Z,88.60
2023-04-14T09:22:35.732Z,63.17
2023-04-14T09:23:41.713Z,36.45
2023-04-14T09:24:44.452Z,34.85
2023-04-14T09:25:46.971Z,53.70
2023-04-14T09:26:50.386Z,46.17
2023-04-14T09:27:53.788Z,123.05
2023-04-14T09:28:56.844Z,44.65
2023-04-14T09:30:00.210Z,69.88
2023-04-14T09:31:04.759Z,48.40
2023-04-14T09:32:09.393Z,30.92
2023-04-14T09:33:23.154Z,16.17
2023-04-14T09:34:26.660Z,17.52
2023-04-14T09:35:55.542Z,16.73
2023-04-14T09:37:09.694Z,20.10
2023-04-14T09:38:12.194Z,11.15
2023-04-14T09:39:17.926Z,14.90
2023-04-14T09:40:30.246Z,18.13
2023-04-14T09:41:32.751Z,23.92
2023-04-14T09:42:42.780Z,16.52
2023-04-14T09:43:49.601Z,14.77
2023-04-14T09:44:59.352Z,13.38
2023-04-14T09:46:07.599Z,9.63
2023-04-14T09:47:15.564Z,7.47
2023-04-14T09:48:19.475Z,8.82
2023-04-14T09:49:21.896Z,15.18
2023-04-14T09:50:25.294Z,13.25
2023-04-14T09:51:30.257Z,57.70
2023-04-14T09:52:44.544Z,38.33
2023-04-14T09:53:48.689Z,26.15
2023-04-14T09:54:56.211Z,40.17
2023-04-14T09:56:02.627Z,27.40
2023-04-14T09:57:06.275Z,44.08
2023-04-14T09:58:10.666Z,28.88
2023-04-14T09:59:13.631Z,36.00
2023-04-14T10:00:16.016Z,20.95
2023-04-14T10:01:27.795Z,17.50
2023-04-14T10:02:30.756Z,18.55
2023-04-14T10:03:39.513Z,9.70
2023-04-14T10:04:42.516Z,11.27
2023-04-14T10:05:48.040Z,7.18
2023-04-14T10:06:50.457Z,5.55
2023-04-14T10:07:52.882Z,9.95
2023-04-14T10:08:56.115Z,11.98
2023-04-14T10:10:06.877Z,8.80
2023-04-14T10:11:35.218Z,8.57
2023-04-14T10:12:37.944Z,10.65
2023-04-14T10:13:40.521Z,7.22
2023-04-14T10:14:44.008Z,5.65
2023-04-14T10:15:46.665Z,5.00
2023-04-14T10:16:49.026Z,7.80
2023-04-14T10:17:51.546Z,5.50
2023-04-14T10:18:55.241Z,7.63
2023-04-14T10:19:58.084Z,5.85
2023-04-14T10:21:03.301Z,6.57
2023-04-14T10:22:06.376Z,7.80
2023-04-14T10:23:09.900Z,4.78
2023-04-14T10:24:12.869Z,6.60
2023-04-14T10:25:16.344Z,10.85
2023-04-14T10:26:20.043Z,8.93
2023-04-14T10:27:22.832Z,4.95
2023-04-14T10:28:28.649Z,7.00
2023-04-14T10:29:31.518Z,6.38
2023-04-14T10:30:34.243Z,9.32
2023-04-14T10:31:40.346Z,7.13
2023-04-14T10:32:47.185Z,6.70
2023-04-14T10:33:49.805Z,5.90
2023-04-14T10:35:05.836Z,5.63
2023-04-14T10:36:09.376Z,5.25
2023-04-14T10:37:16.137Z,5.35
2023-04-14T10:38:19.808Z,65.53
2023-04-14T10:39:27.630Z,58.83
2023-04-14T10:40:46.291Z,52.10
2023-04-14T10:41:50.238Z,60.90
2023-04-14T10:42:56.449Z,97.45
2023-04-14T10:43:59.037Z,75.43
2023-04-14T10:45:05.858Z,39.80
2023-04-14T10:46:12.500Z,30.35
2023-04-14T10:47:24.875Z,31.20
2023-04-14T10:48:33.481Z,20.55
2023-04-14T10:49:38.888Z,19.52
2023-04-14T10:50:48.871Z,16.20
2023-04-14T10:51:52.120Z,15.15
2023-04-14T10:52:56.283Z,16.27
2023-04-14T10:54:03.411Z,10.95
2023-04-14T10:55:09.938Z,13.73
2023-04-14T10:56:13.157Z,8.77
2023-04-14T10:57:15.669Z,11.02
2023-04-14T10:58:20.506Z,8.70
2023-04-14T10:59:24.000Z,7.00
2023-04-14T11:00:31.945Z,12.60
2023-04-14T11:01:36.498Z,6.70
2023-04-14T11:02:39.054Z,6.47
2023-04-14T11:03:45.161Z,6.18
2023-04-14T11:05:12.151Z,7.97
2023-04-14T11:06:47.456Z,8.18
2023-04-14T11:08:00.676Z,6.43
2023-04-14T11:09:25.349Z,10.93
2023-04-14T11:10:30.988Z,7.53
2023-04-14T11:11:34.037Z,3.47
2023-04-14T11:12:43.108Z,5.10
2023-04-14T11:14:05.942Z,8.65
2023-04-14T11:15:09.843Z,6.15
2023-04-14T11:16:12.724Z,7.60
2023-04-14T11:17:22.844Z,7.40
2023-04-14T11:18:37.434Z,4.03
2023-04-14T11:19:40.869Z,7.78
2023-04-14T11:20:43.937Z,6.38
2023-04-14T11:21:50.178Z,7.30
2023-04-14T11:22:55.084Z,8.70
2023-04-14T11:23:59.307Z,7.68
2023-04-14T11:25:02.480Z,8.88
2023-04-14T11:26:06.701Z,6.95
2023-04-14T11:27:11.792Z,6.03
2023-04-14T11:28:14.438Z,8.45
2023-04-14T11:29:17.648Z,5.50
2023-04-14T11:30:21.465Z,4.20
2023-04-14T11:31:27.583Z,5.28
2023-04-14T11:32:32.080Z,3.80
2023-04-14T11:33:37.074Z,4.25
2023-04-14T11:34:39.535Z,5.57
2023-04-14T11:35:42.397Z,3.72
2023-04-14T11:36:44.864Z,6.40
2023-04-14T11:37:47.584Z,4.43
2023-04-14T11:38:50.069Z,8.68
2023-04-14T11:39:52.448Z,5.35
2023-04-14T11:40:56.444Z,4.50
2023-04-14T11:42:01.892Z,3.83
2023-04-14T11:43:06.673Z,3.13
2023-04-14T11:44:10.116Z,4.10
2023-04-14T11:45:15.773Z,4.65
2023-04-14T11:46:22.376Z,3.58
2023-04-14T11:47:24.978Z,2.30
2023-04-14T11:48:29.201Z,5.55
2023-04-14T11:49:37.738Z,3.08
2023-04-14T11:50:41.315Z,2.00
2023-04-14T11:51:43.667Z,4.25
2023-04-14T11:52:46.801Z,3.33
2023-04-14T11:53:49.206Z,3.03
2023-04-14T11:54:51.812Z,3.60
2023-04-14T11:55:54.469Z,2.95
2023-04-14T11:56:56.918Z,3.25
2023-04-14T11:58:00.205Z,4.10
2023-04-14T11:59:04.875Z,3.75
2023-04-14T12:00:08.961Z,2.47
2023-04-14T12:01:14.409Z,3.65
2023-04-14T12:02:21.914Z,4.15
2023-04-14T12:03:29.485Z,4.13
2023-04-14T12:04:32.578Z,5.47
2023-04-14T12:05:35.737Z,1.73
2023-04-14T12:06:39.414Z,3.10
2023-04-14T12:07:45.754Z,2.53
2023-04-14T12:08:56.878Z,5.50
2023-04-14T12:09:59.563Z,3.45
2023-04-14T12:11:15.697Z,2.63
2023-04-14T12:12:20.268Z,3.78
2023-04-14T12:13:23.390Z,2.53
2023-04-14T12:14:26.750Z,2.65
2023-04-14T12:15:36.588Z,1.92
2023-04-14T12:16:39.257Z,4.90
2023-04-14T12:17:42.693Z,2.75
2023-04-14T12:18:45.544Z,4.43
2023-04-14T12:19:49.042Z,4.93
2023-04-14T12:20:56.216Z,1.13
2023-04-14T12:21:59.581Z,1.77
2023-04-14T12:23:03.147Z,3.05
2023-04-14T12:24:05.867Z,3.10
2023-04-14T12:25:12.758Z,4.85
2023-04-14T12:26:15.438Z,17.45
2023-04-14T12:27:24.622Z,73.53
2023-04-14T12:28:28.907Z,21.25
2023-04-14T12:29:37.189Z,29.08
2023-04-14T12:30:54.137Z,22.38
2023-04-14T12:31:56.824Z,18.15
2023-04-14T12:32:59.381Z,11.65
2023-04-14T12:34:04.185Z,19.38
2023-04-14T12:35:09.168Z,7.43
2023-04-14T12:36:15.280Z,6.43
2023-04-14T12:37:18.336Z,3.97
2023-04-14T12:38:27.533Z,7.03
2023-04-14T12:39:29.949Z,6.35
2023-04-14T12:40:45.913Z,3.42
2023-04-14T12:41:48.949Z,2.05
2023-04-14T12:42:52.052Z,3.67
2023-04-14T12:43:54.537Z,3.20
2023-04-14T12:45:03.066Z,4.53
2023-04-14T12:46:06.898Z,2.90
2023-04-14T12:47:09.492Z,2.70
2023-04-14T12:48:13.429Z,2.58
2023-04-14T12:49:39.857Z,4.80
2023-04-14T12:50:42.534Z,5.68
2023-04-14T12:51:44.832Z,4.93
2023-04-14T12:52:47.570Z,93.97
2023-04-14T12:53:50.531Z,55.05
2023-04-14T12:54:53.479Z,55.85
2023-04-14T12:56:12.158Z,32.60
2023-04-14T12:57:15.110Z,24.80
2023-04-14T12:58:18.254Z,21.75
2023-04-14T12:59:21.054Z,24.45
2023-04-14T13:00:28.842Z,26.40
2023-04-14T13:01:31.587Z,10.30
2023-04-14T13:02:35.351Z,10.77
2023-04-14T13:03:47.781Z,9.57
2023-04-14T13:04:50.438Z,5.32
2023-04-14T13:05:54.927Z,4.82
2023-04-14T13:06:57.428Z,4.13
2023-04-14T13:07:59.802Z,4.85
2023-04-14T13:09:02.447Z,4.18
2023-04-14T13:10:05.865Z,3.97
2023-04-14T13:11:08.291Z,4.28
2023-04-14T13:12:10.768Z,7.40
2023-04-14T13:13:13.149Z,4.68
2023-04-14T13:14:15.506Z,2.75
2023-04-14T13:15:32.600Z,2.53
2023-04-14T13:16:40.356Z,3.90
2023-04-14T13:17:42.863Z,2.22
2023-04-14T13:18:47.180Z,4.07
2023-04-14T13:19:49.632Z,3.17
2023-04-14T13:20:55.886Z,3.28
2023-04-14T13:22:00.563Z,3.20
2023-04-14T13:23:03.012Z,2.20
2023-04-14T13:24:06.998Z,1.42
2023-04-14T13:25:09.559Z,1.48
2023-04-14T13:26:12.983Z,3.75
2023-04-14T13:27:16.493Z,2.58
2023-04-14T13:28:19.060Z,40.42
2023-04-14T13:29:22.120Z,43.50
2023-04-14T13:30:24.526Z,49.13
2023-04-14T13:31:26.894Z,41.72
2023-04-14T13:32:29.436Z,53.35
2023-04-14T13:33:33.158Z,41.72
2023-04-14T13:34:37.201Z,51.15
2023-04-14T13:35:40.137Z,40.50
2023-04-14T13:36:42.652Z,34.35
2023-04-14T13:37:46.272Z,29.20
2023-04-14T13:38:48.808Z,26.38
2023-04-14T13:39:51.360Z,19.42
2023-04-14T13:40:53.850Z,15.70
2023-04-14T13:41:56.496Z,13.57
2023-04-14T13:42:59.013Z,15.75
2023-04-14T13:44:01.401Z,13.00
2023-04-14T13:45:04.176Z,12.55
2023-04-14T13:46:07.030Z,14.00
2023-04-14T13:47:09.762Z,12.55
2023-04-14T13:48:12.518Z,11.45
2023-04-14T13:49:15.019Z,12.00
2023-04-14T13:50:19.439Z,12.02
2023-04-14T13:51:23.595Z,13.77
2023-04-14T13:52:26.244Z,11.73
2023-04-14T13:53:28.675Z,11.10
2023-04-14T13:54:31.077Z,9.18
2023-04-14T13:55:34.593Z,11.30
2023-04-14T13:56:37.100Z,16.60
2023-04-14T13:57:39.616Z,10.70
2023-04-14T13:58:42.125Z,12.95
2023-04-14T13:59:44.771Z,12.00
2023-04-14T14:00:47.230Z,13.15
2023-04-14T14:01:50.574Z,12.00
2023-04-14T14:02:53.250Z,12.15
2023-04-14T14:03:56.034Z,13.23
2023-04-14T14:04:59.521Z,13.13
2023-04-14T14:06:02.023Z,10.15
2023-04-14T14:07:04.498Z,14.00
2023-04-14T14:08:06.964Z,11.95
2023-04-14T14:09:09.656Z,10.80
2023-04-14T14:10:12.531Z,10.05
2023-04-14T14:11:15.007Z,12.38
2023-04-14T14:12:17.551Z,11.60
2023-04-14T14:13:21.716Z,7.72
2023-04-14T14:14:24.321Z,11.20
2023-04-14T14:15:27.060Z,12.95
2023-04-14T14:16:36.679Z,11.25
2023-04-14T14:17:40.839Z,13.93
2023-04-14T14:18:45.113Z,16.02
2023-04-14T14:19:48.205Z,10.38
2023-04-14T14:20:51.010Z,9.63
2023-04-14T14:21:53.354Z,8.40
2023-04-14T14:22:56.090Z,10.40